• Join FlightAware (Why Join?)
  • Login
  • US Flag 
05:58AM EDT


 

Airport Tracker/Info


-or-


 

Live Flight TrackerFlight Track Log ✈ EJA951 ✈ 16-Sep-2013 ✈ KLAS - KSJC

Flight Track Log - Related Links

Times and Time Zones

All times are in EDT time to prevent confusion due to time zone crossing. See the EJA951 flight status page for this flight to view local times or setup timezone preferences in your user account.

Time Position Orientation Groundspeed Altitude Reporting Facility
EDT Latitude Longitude Course Direction KTS MPH feet Rate Location/Type
03:43PM 36.0756 -115.1364 89° East 152 175 3,000  Level Los Angeles Center
03:45PM 36.0764 -115.0511 89° East 229 264 6,700 2,940 Climbing Los Angeles Center
03:45PM 36.0753 -115.0492 125° Southeast 219 252 6,600 4,020 Descending Los Angeles Center
03:46PM 36.0531 -114.9631 108° East 281 323 10,800 3,840 Climbing Los Angeles Center
03:46PM 36.0539 -114.9619 47° Northeast 279 321 10,600 2,220 Descending Los Angeles Center
03:47PM 35.9778 -115.0033 204° Southwest 324 373 13,400 2,880 Climbing Los Angeles Center
03:48PM 35.9572 -115.1536 260° West 369 425 16,600 2,280 Climbing Los Angeles Center
03:49PM 35.9467 -115.2872 264° West 382 440 18,200 1,440 Climbing Los Angeles Center
03:50PM 35.9375 -115.4222 265° West 389 448 19,600 1,440 Climbing Los Angeles Center
03:51PM 35.9269 -115.5686 265° West 401 461 21,200 1,440 Climbing Los Angeles Center
03:52PM 35.9161 -115.7067 265° West 404 465 22,700 1,380 Climbing Los Angeles Center
03:53PM 35.9058 -115.8422 265° West 410 472 24,100 1,500 Climbing Los Angeles Center
03:54PM 35.9222 -115.9900 278° West 411 473 25,800 1,500 Climbing Los Angeles Center
03:55PM 36.0142 -116.1078 314° West 436 502 27,200 1,320 Climbing Los Angeles Center
03:56PM 36.1042 -116.2097 318° Northwest 437 503 28,600 1,200 Climbing Los Angeles Center
03:57PM 36.1853 -116.3033 317° Northwest 446 513 29,800 660 Climbing Los Angeles Center
03:58PM 36.2972 -116.4339 317° Northwest 464 534 30,000 60 Climbing Los Angeles Center
03:59PM 36.3975 -116.5494 317° Northwest 489 563 30,000  Level Los Angeles Center
04:00PM 36.4992 -116.6675 317° Northwest 500 575 30,000  Level Los Angeles Center
04:01PM 36.6239 -116.7931 321° Northwest 512 589 30,000  Level Los Angeles Center
04:02PM 36.7406 -116.8819 329° Northwest 499 574 30,000  Level Los Angeles Center
04:03PM 36.8522 -116.9661 329° Northwest 478 550 30,000  Level Los Angeles Center
04:04PM 36.9628 -117.0522 328° Northwest 472 543 30,000  Level Los Angeles Center
04:05PM 37.0764 -117.1381 329° Northwest 475 547 30,000  Level Los Angeles Center
04:06PM 37.2128 -117.2417 329° Northwest 477 549 30,000  Level Los Angeles Center
04:07PM 37.3281 -117.3300 329° Northwest 480 552 30,000  Level Los Angeles Center
04:08PM 37.3681 -117.3758 318° Northwest 487 560 30,000  Level Oakland Center
04:09PM 37.4181 -117.5203 294° West 468 539 30,000  Level Oakland Center
04:10PM 37.4083 -117.7122 266° West 461 531 30,000  Level Oakland Center
04:11PM 37.3989 -117.8747 266° West 461 531 30,000  Level Oakland Center
04:12PM 37.3900 -118.0356 266° West 462 532 30,000  Level Oakland Center
04:13PM 37.3808 -118.1886 266° West 448 516 30,000  Level Oakland Center
04:14PM 37.3719 -118.3358 266° West 430 495 30,000  Level Oakland Center
04:15PM 37.3622 -118.4806 265° West 421 484 30,000  Level Oakland Center
04:16PM 37.3506 -118.6258 264° West 422 486 30,000  Level Oakland Center
04:17PM 37.3400 -118.7750 265° West 426 490 30,000 -420 Level Oakland Center
04:18PM 37.3300 -118.9414 266° West 428 493 29,200 -1,260 Descending Oakland Center
04:19PM 37.3194 -119.0856 265° West 418 481 27,500 -1,680 Descending Oakland Center
04:20PM 37.3094 -119.2275 265° West 413 475 25,800 -1,740 Descending Oakland Center
04:21PM 37.2986 -119.3664 264° West 406 467 24,000 -1,680 Descending Oakland Center
04:22PM 37.2892 -119.5047 265° West 401 461 22,400 -1,620 Descending Oakland Center
04:23PM 37.2783 -119.6403 264° West 395 455 20,800 -1,200 Descending Oakland Center
04:24PM 37.2658 -119.8000 264° West 388 447 20,000 -420 Descending Oakland Center
04:25PM 37.2564 -119.9314 265° West 385 443 20,000 -60 Level Oakland Center
04:26PM 37.2453 -120.0658 264° West 386 444 19,900 -840 Descending Oakland Center
04:27PM 37.2358 -120.1978 265° West 383 441 18,300 -1,560 Descending Oakland Center
04:29PM 37.2219 -120.3347 263° West 387 445 16,800 -1,200 Descending Oakland Center
04:30PM 37.2042 -120.4625 260° West 373 429 15,900 -480 Descending Oakland Center
04:31PM 37.1783 -120.5844 255° West 361 415 15,900 -300 Level Oakland Center
04:32PM 37.1522 -120.7067 255° West 365 420 15,300 -1,140 Descending Oakland Center
04:33PM 37.1283 -120.8269 256° West 355 409 13,600 -1,800 Descending Oakland Center
04:34PM 37.0967 -120.9703 255° West 353 406 11,700 -1,680 Descending Oakland Center
04:35PM 37.0817 -121.0892 261° West 349 402 10,200 -840 Descending Oakland Center
04:36PM 37.0731 -121.2075 265° West 350 403 10,000 -120 Descending Oakland Center
04:37PM 37.0639 -121.3283 265° West 350 403 10,000 -720 Level Oakland Center
04:38PM 37.0572 -121.4261 265° West 291 335 8,600 -1,440 Descending Oakland Center
04:39PM 37.0542 -121.5228 268° West 280 322 7,100 -1,440 Descending Oakland Center
04:40PM 37.1106 -121.6169 307° West 282 325 5,700 -1,080 Descending Oakland Center
04:41PM 37.1547 -121.6994 304° West 282 325 5,000 -900 Descending Oakland Center
04:42PM 37.2017 -121.7625 313° West 265 305 3,900 -1,080 Descending Oakland Center
04:43PM 37.2461 -121.8036 324° Northwest 224 258 2,900 -900 Descending Oakland Center
04:44PM 37.2767 -121.8392 317° Northwest 178 205 2,100 -660 Descending Oakland Center
04:45PM 37.3058 -121.8706 319° Northwest 152 175 1,600 -720 Descending Oakland Center
04:46PM 37.3333 -121.9008 319° Northwest 140 161 700 -780 Descending Oakland Center
04:47PM 37.3600 -121.9294 320° Northwest 132 152 100 -600 Descending Oakland Center
04:49PM 37.3627 -121.9291 North  Level Estimated
04:56PM 37.3627 -121.9291 North  Level Estimated